createdAt,value
2022-11-14T00:02:42.149Z,16.70
2022-11-14T00:05:29.786Z,16.55
2022-11-14T00:08:22.478Z,16.75
2022-11-14T00:11:09.664Z,16.66
2022-11-14T00:14:02.965Z,16.71
2022-11-14T00:16:50.367Z,16.60
2022-11-14T00:19:38.330Z,16.62
2022-11-14T00:22:28.978Z,16.66
2022-11-14T00:25:17.632Z,16.64
2022-11-14T00:28:06.014Z,16.72
2022-11-14T00:30:53.911Z,16.52
2022-11-14T00:33:40.853Z,16.34
2022-11-14T00:36:27.953Z,16.13
2022-11-14T00:39:15.798Z,16.23
2022-11-14T00:42:04.486Z,16.47
2022-11-14T00:44:51.694Z,16.45
2022-11-14T00:47:38.918Z,16.38
2022-11-14T00:50:26.555Z,16.47
2022-11-14T00:53:15.088Z,16.50
2022-11-14T00:56:02.680Z,16.63
2022-11-14T00:58:51.077Z,16.69
2022-11-14T01:01:38.201Z,16.66
2022-11-14T01:04:25.671Z,16.70
2022-11-14T01:07:12.927Z,16.75
2022-11-14T01:09:59.921Z,16.63
2022-11-14T01:12:46.949Z,16.46
2022-11-14T01:15:35.479Z,16.09
2022-11-14T01:18:23.240Z,16.12
2022-11-14T01:21:12.545Z,16.11
2022-11-14T01:24:00.052Z,15.65
2022-11-14T01:26:46.973Z,15.67
2022-11-14T01:29:33.931Z,15.77
2022-11-14T01:32:22.551Z,15.97
2022-11-14T01:35:10.078Z,16.01
2022-11-14T01:37:57.442Z,16.15
2022-11-14T01:40:44.768Z,16.11
2022-11-14T01:43:34.331Z,16.17
2022-11-14T01:46:26.280Z,16.08
2022-11-14T01:49:19.680Z,16.26
2022-11-14T01:52:10.215Z,16.28
2022-11-14T01:55:00.717Z,16.39
2022-11-14T01:57:49.510Z,16.35
2022-11-14T02:00:36.328Z,16.19
2022-11-14T02:03:23.322Z,16.24
2022-11-14T02:06:16.375Z,16.13
2022-11-14T02:09:06.685Z,16.31
2022-11-14T02:11:56.341Z,16.37
2022-11-14T02:14:45.461Z,16.39
2022-11-14T02:17:33.679Z,16.41
2022-11-14T02:20:24.171Z,16.44
2022-11-14T02:23:12.347Z,16.39
2022-11-14T02:25:59.627Z,16.40
2022-11-14T02:28:47.026Z,16.39
2022-11-14T02:31:33.935Z,16.29
2022-11-14T02:34:21.324Z,16.15
2022-11-14T02:37:09.437Z,16.22
2022-11-14T02:39:56.712Z,16.23
2022-11-14T02:42:44.030Z,16.19
2022-11-14T02:45:31.396Z,15.91
2022-11-14T02:48:18.411Z,15.97
2022-11-14T02:51:05.497Z,15.98
2022-11-14T02:53:54.063Z,15.97
2022-11-14T02:56:41.454Z,15.80
2022-11-14T02:59:28.747Z,15.79
2022-11-14T03:02:15.812Z,15.81
2022-11-14T03:05:02.664Z,15.74
2022-11-14T03:07:49.927Z,15.71
2022-11-14T03:10:38.725Z,15.73
2022-11-14T03:13:30.074Z,15.66
2022-11-14T03:16:16.859Z,15.57
2022-11-14T03:19:04.153Z,15.50
2022-11-14T03:21:51.466Z,15.55
2022-11-14T03:24:38.342Z,15.52
2022-11-14T03:27:26.682Z,15.40
2022-11-14T03:30:14.204Z,15.51
2022-11-14T03:33:01.221Z,15.46
2022-11-14T03:35:50.338Z,15.40
2022-11-14T03:38:38.101Z,15.23
2022-11-14T03:41:25.368Z,15.09
2022-11-14T03:44:13.986Z,15.22
2022-11-14T03:47:01.084Z,15.27
2022-11-14T03:49:47.994Z,15.11
2022-11-14T03:52:35.410Z,15.29
2022-11-14T03:55:22.512Z,15.19
2022-11-14T03:58:09.907Z,14.94
2022-11-14T04:00:58.610Z,14.94
2022-11-14T04:03:45.927Z,14.88
2022-11-14T04:06:32.745Z,14.96
2022-11-14T04:09:19.725Z,15.02
2022-11-14T04:12:10.125Z,15.07
2022-11-14T04:15:01.469Z,15.11
2022-11-14T04:17:50.368Z,15.20
2022-11-14T04:20:37.352Z,15.13
2022-11-14T04:23:25.082Z,14.92
2022-11-14T04:26:12.292Z,15.11
2022-11-14T04:28:59.699Z,15.15
2022-11-14T04:31:47.191Z,15.12
2022-11-14T04:34:35.474Z,15.24
2022-11-14T04:37:22.653Z,15.27
2022-11-14T04:40:11.833Z,15.29
2022-11-14T04:42:59.324Z,15.14
2022-11-14T04:45:46.249Z,15.05
2022-11-14T04:48:33.946Z,15.06
2022-11-14T04:51:22.640Z,14.95
2022-11-14T04:54:09.834Z,14.83
2022-11-14T04:56:57.146Z,14.83
2022-11-14T04:59:44.349Z,15.01
2022-11-14T05:05:33.793Z,15.19
2022-11-14T05:08:24.504Z,15.20
2022-11-14T05:11:15.512Z,15.10
2022-11-14T05:14:02.876Z,15.23
2022-11-14T05:16:50.206Z,15.16
2022-11-14T05:19:37.301Z,15.03
2022-11-14T05:22:24.221Z,14.92
2022-11-14T05:25:12.963Z,15.01
2022-11-14T05:28:00.124Z,15.02
2022-11-14T05:30:47.337Z,15.07
2022-11-14T05:33:34.459Z,15.00
2022-11-14T05:36:21.451Z,14.97
2022-11-14T05:39:08.399Z,14.92
2022-11-14T05:41:56.796Z,14.93
2022-11-14T05:44:44.710Z,14.93
2022-11-14T05:47:31.924Z,14.71
2022-11-14T05:50:19.170Z,14.83
2022-11-14T05:53:06.312Z,14.72
2022-11-14T05:55:53.797Z,14.65
2022-11-14T05:58:42.289Z,14.78
2022-11-14T06:01:29.269Z,14.79
2022-11-14T06:04:35.218Z,14.81
2022-11-14T06:07:22.382Z,14.80
2022-11-14T06:10:10.175Z,14.94
2022-11-14T06:12:57.288Z,14.97
2022-11-14T06:15:45.580Z,15.01
2022-11-14T06:18:33.892Z,14.57
2022-11-14T06:21:23.853Z,14.52
2022-11-14T06:24:10.979Z,14.53
2022-11-14T06:26:58.079Z,14.42
2022-11-14T06:29:45.116Z,14.65
2022-11-14T06:32:33.701Z,14.85
2022-11-14T06:35:20.717Z,14.83
2022-11-14T06:38:07.606Z,14.63
2022-11-14T06:40:54.740Z,14.67
2022-11-14T06:43:43.033Z,14.61
2022-11-14T06:46:29.788Z,14.57
2022-11-14T06:49:18.123Z,14.48
2022-11-14T06:52:05.763Z,14.47
2022-11-14T06:54:52.984Z,14.59
2022-11-14T06:57:39.864Z,14.54
2022-11-14T07:00:26.877Z,14.66
2022-11-14T07:03:13.950Z,14.37
2022-11-14T07:06:02.670Z,14.32
2022-11-14T07:08:49.658Z,14.43
2022-11-14T07:11:37.876Z,14.55
2022-11-14T07:14:25.032Z,14.38
2022-11-14T07:17:11.920Z,14.44
2022-11-14T07:19:58.719Z,14.41
2022-11-14T07:22:48.371Z,14.49
2022-11-14T07:25:37.198Z,14.55
2022-11-14T07:28:24.337Z,14.54
2022-11-14T07:31:13.207Z,14.65
2022-11-14T07:33:59.991Z,14.48
2022-11-14T07:36:47.139Z,14.70
2022-11-14T07:39:35.687Z,14.95
2022-11-14T07:42:23.211Z,14.99
2022-11-14T07:45:11.446Z,15.03
2022-11-14T07:47:59.784Z,15.17
2022-11-14T07:50:47.753Z,15.07
2022-11-14T07:53:35.462Z,15.22
2022-11-14T07:56:26.030Z,15.07
2022-11-14T07:59:13.076Z,15.18
2022-11-14T08:02:00.044Z,14.94
2022-11-14T08:04:47.590Z,15.35
2022-11-14T08:07:35.309Z,15.53
2022-11-14T08:10:22.711Z,15.70
2022-11-14T08:16:19.195Z,15.85
2022-11-14T08:19:06.139Z,16.11
2022-11-14T08:21:52.992Z,16.25
2022-11-14T08:24:39.757Z,16.27
2022-11-14T08:27:27.015Z,16.44
2022-11-14T08:30:16.016Z,16.46
2022-11-14T08:33:04.234Z,16.13
2022-11-14T08:35:51.118Z,16.31
2022-11-14T08:38:38.106Z,16.51
2022-11-14T08:41:25.116Z,16.62
2022-11-14T08:44:12.181Z,16.58
2022-11-14T08:47:00.574Z,16.83
2022-11-14T08:49:47.743Z,16.85
2022-11-14T08:52:34.846Z,16.93
2022-11-14T08:55:22.072Z,17.38
2022-11-14T08:58:09.083Z,17.31
2022-11-14T09:00:56.188Z,17.45
2022-11-14T09:03:44.838Z,17.27
2022-11-14T09:06:31.996Z,17.03
2022-11-14T09:09:19.221Z,16.96
2022-11-14T09:12:07.172Z,16.71
2022-11-14T09:14:54.332Z,16.94
2022-11-14T09:17:41.245Z,17.11
2022-11-14T09:20:34.208Z,17.36
2022-11-14T09:23:25.546Z,17.46
2022-11-14T09:26:12.347Z,17.54
2022-11-14T09:28:59.806Z,18.11
2022-11-14T09:31:46.788Z,18.57
2022-11-14T09:34:33.823Z,19.58
2022-11-14T09:37:22.216Z,19.19
2022-11-14T09:40:13.617Z,19.97
2022-11-14T09:43:35.782Z,20.40
2022-11-14T09:46:25.957Z,21.12
2022-11-14T09:49:24.968Z,23.02
2022-11-14T09:52:23.353Z,24.76
2022-11-14T09:55:14.912Z,24.40
2022-11-14T09:58:03.247Z,24.12
2022-11-14T10:00:57.151Z,24.14
2022-11-14T10:03:52.723Z,22.91
2022-11-14T10:06:48.415Z,22.53
2022-11-14T10:09:54.603Z,21.56
2022-11-14T10:12:52.922Z,20.38
2022-11-14T10:15:47.666Z,20.05
2022-11-14T10:18:49.128Z,20.04
2022-11-14T10:21:47.970Z,20.88
2022-11-14T10:24:58.300Z,21.89
2022-11-14T10:28:04.907Z,22.85
2022-11-14T10:31:02.050Z,22.87
2022-11-14T10:33:58.318Z,25.39
2022-11-14T10:36:57.023Z,26.50
2022-11-14T10:39:48.732Z,25.88
2022-11-14T10:42:40.066Z,25.56
2022-11-14T10:45:32.134Z,24.74
2022-11-14T10:48:30.251Z,23.34
2022-11-14T10:51:23.893Z,23.49
2022-11-14T10:54:19.208Z,23.77
2022-11-14T10:57:16.907Z,23.47
2022-11-14T11:00:07.694Z,24.58
2022-11-14T11:02:58.725Z,26.04
2022-11-14T11:05:51.144Z,28.21
2022-11-14T11:09:00.486Z,28.50
2022-11-14T11:11:56.460Z,27.57
2022-11-14T11:14:44.157Z,28.36
2022-11-14T11:17:38.667Z,27.36
2022-11-14T11:20:34.117Z,26.00
2022-11-14T11:23:26.196Z,25.28
2022-11-14T11:26:20.294Z,24.05
2022-11-14T11:29:15.594Z,23.05
2022-11-14T11:32:02.853Z,22.76
2022-11-14T11:34:49.852Z,22.21
2022-11-14T11:37:43.604Z,22.19
2022-11-14T11:40:32.033Z,22.08
2022-11-14T11:43:50.303Z,21.28
2022-11-14T11:46:48.296Z,21.10
2022-11-14T11:49:42.126Z,20.66
2022-11-14T11:52:35.454Z,20.34
2022-11-14T11:55:27.327Z,20.80
2022-11-14T11:58:22.260Z,20.98
2022-11-14T12:01:13.600Z,20.86
2022-11-14T12:04:04.171Z,20.73
2022-11-14T12:07:00.183Z,19.95
2022-11-14T12:10:09.860Z,19.96
2022-11-14T12:13:21.279Z,20.16
2022-11-14T12:16:28.423Z,20.86
2022-11-14T12:19:53.350Z,20.90
2022-11-14T12:23:13.593Z,20.55
2022-11-14T12:26:36.518Z,21.50
2022-11-14T12:29:53.224Z,22.03
2022-11-14T12:32:44.184Z,20.71
2022-11-14T12:35:34.421Z,19.94
2022-11-14T12:38:23.746Z,19.65
2022-11-14T12:41:11.802Z,20.52
2022-11-14T12:44:32.383Z,21.24
2022-11-14T12:47:23.146Z,21.18
2022-11-14T12:50:42.718Z,21.44
2022-11-14T12:53:46.114Z,22.06
2022-11-14T12:57:01.001Z,21.86
2022-11-14T12:59:59.297Z,22.07
2022-11-14T13:03:03.459Z,20.92
2022-11-14T13:05:56.861Z,20.47
2022-11-14T13:09:10.356Z,19.68
2022-11-14T13:12:14.949Z,20.14
2022-11-14T13:15:43.467Z,20.45
2022-11-14T13:18:53.655Z,20.83
2022-11-14T13:22:18.435Z,20.94
2022-11-14T13:25:20.412Z,20.41
2022-11-14T13:28:40.341Z,20.38
2022-11-14T13:31:45.514Z,20.58
2022-11-14T13:34:51.294Z,20.36
2022-11-14T13:37:57.091Z,20.42
2022-11-14T13:40:53.316Z,19.91
2022-11-14T13:43:54.989Z,19.82
2022-11-14T13:46:58.888Z,19.83
2022-11-14T13:49:57.965Z,19.86
2022-11-14T13:52:46.853Z,20.13
2022-11-14T13:55:46.420Z,20.41
2022-11-14T13:58:50.632Z,20.47
2022-11-14T14:01:49.380Z,20.04
2022-11-14T14:04:50.643Z,20.14
2022-11-14T14:07:54.125Z,20.08
2022-11-14T14:10:50.036Z,20.39
2022-11-14T14:13:54.032Z,20.34
2022-11-14T14:16:51.109Z,20.19
2022-11-14T14:19:52.059Z,20.59
2022-11-14T14:22:48.630Z,20.59
2022-11-14T14:25:43.340Z,20.54
2022-11-14T14:28:41.409Z,20.38
2022-11-14T14:31:36.176Z,20.30
2022-11-14T14:34:25.333Z,19.94
2022-11-14T14:37:20.734Z,19.96
2022-11-14T14:40:25.064Z,19.77
2022-11-14T14:43:23.420Z,20.07
2022-11-14T14:46:11.124Z,19.98
2022-11-14T14:49:01.207Z,20.01
2022-11-14T14:51:48.154Z,19.68
2022-11-14T14:54:35.345Z,19.80
2022-11-14T14:57:24.133Z,19.86
2022-11-14T15:00:23.465Z,19.91
2022-11-14T15:03:12.097Z,20.13
2022-11-14T15:06:03.129Z,19.48
2022-11-14T15:08:50.897Z,19.61
2022-11-14T15:11:42.356Z,19.31
2022-11-14T15:14:35.720Z,19.17
2022-11-14T15:17:23.989Z,18.92
2022-11-14T15:20:23.074Z,18.72
2022-11-14T15:23:21.373Z,18.59
2022-11-14T15:26:18.013Z,18.55
2022-11-14T15:29:08.125Z,18.27
2022-11-14T15:31:59.245Z,18.22
2022-11-14T15:35:09.718Z,18.17
2022-11-14T15:38:43.153Z,17.97
2022-11-14T15:41:29.859Z,18.09
2022-11-14T15:44:31.219Z,18.16
2022-11-14T15:47:24.830Z,18.16
2022-11-14T15:50:30.165Z,18.10
2022-11-14T15:53:24.081Z,18.23
2022-11-14T15:56:14.166Z,18.19
2022-11-14T15:59:01.546Z,18.09
2022-11-14T16:14:03.442Z,17.50
2022-11-14T16:16:50.772Z,17.72
2022-11-14T16:19:37.851Z,17.74
2022-11-14T16:22:24.891Z,17.57
2022-11-14T16:25:18.226Z,17.43
2022-11-14T16:28:06.055Z,17.57
2022-11-14T16:30:54.653Z,17.60
2022-11-14T16:33:41.903Z,17.69
2022-11-14T16:36:29.085Z,17.70
2022-11-14T16:39:15.837Z,17.66
2022-11-14T16:42:03.662Z,17.80
2022-11-14T16:44:51.054Z,17.70
2022-11-14T16:47:40.210Z,17.69
2022-11-14T16:50:26.970Z,17.60
2022-11-14T16:53:13.893Z,17.60
2022-11-14T16:56:00.815Z,17.64
2022-11-14T16:58:48.083Z,17.47
2022-11-14T17:01:34.970Z,17.52
2022-11-14T17:04:24.030Z,17.49
2022-11-14T17:07:11.254Z,17.37
2022-11-14T17:09:58.430Z,17.22
2022-11-14T17:12:45.375Z,17.14
2022-11-14T17:15:34.089Z,17.27
2022-11-14T17:18:21.790Z,17.23
2022-11-14T17:21:12.593Z,17.10
2022-11-14T17:24:02.738Z,17.08
2022-11-14T17:26:50.277Z,16.96
2022-11-14T17:29:37.677Z,16.99
2022-11-14T17:32:24.660Z,16.94
2022-11-14T17:35:11.939Z,17.02
2022-11-14T17:38:00.708Z,17.04
2022-11-14T17:40:47.880Z,16.90
2022-11-14T17:43:39.086Z,16.94
2022-11-14T17:46:27.073Z,17.04
2022-11-14T17:49:14.044Z,16.94
2022-11-14T17:52:01.314Z,17.02
2022-11-14T17:54:49.944Z,17.09
2022-11-14T17:57:37.238Z,17.18
2022-11-14T18:00:24.647Z,17.30
2022-11-14T18:03:11.571Z,17.33
2022-11-14T18:06:06.840Z,17.39
2022-11-14T18:08:54.152Z,17.29
2022-11-14T18:11:42.706Z,17.30
2022-11-14T18:14:29.961Z,17.32
2022-11-14T18:17:17.197Z,17.23
2022-11-14T18:20:05.244Z,17.25
2022-11-14T18:22:52.168Z,17.17
2022-11-14T18:25:39.377Z,17.01
2022-11-14T18:28:27.921Z,16.82
2022-11-14T18:31:14.990Z,16.93
2022-11-14T18:34:02.924Z,16.81
2022-11-14T18:36:50.195Z,16.85
2022-11-14T18:39:37.399Z,16.76
2022-11-14T18:42:25.694Z,16.91
2022-11-14T18:45:18.021Z,16.94
2022-11-14T18:48:05.833Z,16.83
2022-11-14T18:50:53.317Z,16.92
2022-11-14T18:53:40.524Z,16.77
2022-11-14T18:56:27.763Z,16.77
2022-11-14T18:59:14.862Z,16.75
2022-11-14T19:02:03.628Z,16.93
2022-11-14T19:04:50.713Z,17.03
2022-11-14T19:07:37.571Z,17.09
2022-11-14T19:10:24.837Z,17.11
2022-11-14T19:13:11.897Z,16.70
2022-11-14T19:16:02.613Z,16.96
2022-11-14T19:18:51.277Z,16.78
2022-11-14T19:21:38.488Z,16.94
2022-11-14T19:24:25.710Z,16.95
2022-11-14T19:27:12.996Z,16.94
2022-11-14T19:29:59.826Z,16.81
2022-11-14T19:32:46.880Z,16.76
2022-11-14T19:35:38.817Z,16.74
2022-11-14T19:38:26.015Z,16.66
2022-11-14T19:41:16.320Z,16.75
2022-11-14T19:44:04.072Z,16.68
2022-11-14T19:46:51.406Z,16.79
2022-11-14T19:49:38.765Z,16.76
2022-11-14T19:52:27.466Z,16.85
2022-11-14T19:55:14.312Z,16.76
2022-11-14T19:58:01.588Z,16.61
2022-11-14T20:00:48.962Z,16.63
2022-11-14T20:03:36.486Z,16.66
2022-11-14T20:06:26.268Z,16.77
2022-11-14T20:09:14.702Z,16.79
2022-11-14T20:12:02.891Z,16.76
2022-11-14T20:14:49.840Z,16.77
2022-11-14T20:17:37.095Z,16.78
2022-11-14T20:20:24.016Z,16.77
2022-11-14T20:23:11.496Z,16.62
2022-11-14T20:25:59.740Z,16.77
2022-11-14T20:28:48.097Z,16.79
2022-11-14T20:31:35.474Z,16.70
2022-11-14T20:34:23.304Z,16.68
2022-11-14T20:37:11.757Z,16.80
2022-11-14T20:39:59.264Z,16.84
2022-11-14T20:42:49.984Z,16.86
2022-11-14T20:45:37.196Z,16.80
2022-11-14T20:48:24.294Z,16.68
2022-11-14T20:51:14.242Z,16.80
2022-11-14T20:54:04.592Z,16.87
2022-11-14T20:56:51.927Z,16.81
2022-11-14T20:59:40.156Z,16.89
2022-11-14T21:02:27.372Z,16.78
2022-11-14T21:05:15.118Z,16.58
2022-11-14T21:08:02.313Z,16.67
2022-11-14T21:10:51.013Z,16.64
2022-11-14T21:13:57.371Z,16.72
2022-11-14T21:16:46.061Z,16.70
2022-11-14T21:19:34.039Z,16.72
2022-11-14T21:22:21.113Z,16.76
2022-11-14T21:25:09.052Z,16.75
2022-11-14T21:27:56.044Z,16.65
2022-11-14T21:30:42.846Z,16.75
2022-11-14T21:33:33.455Z,16.72
2022-11-14T21:39:28.229Z,16.87
2022-11-14T21:42:18.367Z,16.88
2022-11-14T21:45:06.220Z,16.89
2022-11-14T21:47:53.456Z,16.70
2022-11-14T21:50:41.853Z,16.54
2022-11-14T21:53:29.529Z,16.52
2022-11-14T21:56:18.969Z,16.62
2022-11-14T21:59:18.833Z,16.65
2022-11-14T22:02:23.545Z,16.60
2022-11-14T22:05:10.784Z,16.41
2022-11-14T22:08:00.115Z,16.42
2022-11-14T22:10:47.275Z,16.28
2022-11-14T22:13:34.435Z,16.32
2022-11-14T22:16:21.572Z,16.50
2022-11-14T22:19:09.165Z,16.49
2022-11-14T22:21:56.396Z,16.38
2022-11-14T22:24:44.783Z,16.28
2022-11-14T22:27:32.180Z,16.28
2022-11-14T22:30:19.167Z,16.26
2022-11-14T22:33:06.092Z,16.31
2022-11-14T22:35:53.567Z,16.25
2022-11-14T22:38:41.229Z,16.22
2022-11-14T22:41:33.095Z,16.33
2022-11-14T22:44:21.267Z,16.40
2022-11-14T22:47:07.926Z,16.39
2022-11-14T22:49:55.294Z,16.39
2022-11-14T22:52:42.346Z,16.39
2022-11-14T22:55:29.410Z,16.46
2022-11-14T22:58:17.776Z,16.49
2022-11-14T23:01:12.492Z,16.53
2022-11-14T23:04:01.947Z,16.43
2022-11-14T23:06:49.476Z,16.45
2022-11-14T23:09:36.656Z,16.39
2022-11-14T23:12:23.672Z,16.29
2022-11-14T23:15:12.860Z,16.28
2022-11-14T23:18:00.119Z,16.29
2022-11-14T23:20:47.380Z,16.36
2022-11-14T23:23:34.589Z,16.53
2022-11-14T23:26:22.181Z,16.45
2022-11-14T23:29:14.492Z,16.46
2022-11-14T23:32:02.771Z,16.36
2022-11-14T23:34:49.971Z,16.29
2022-11-14T23:37:37.324Z,16.13
2022-11-14T23:40:24.642Z,16.12
2022-11-14T23:43:11.913Z,16.36
2022-11-14T23:45:59.456Z,16.36
2022-11-14T23:48:47.973Z,16.41
2022-11-14T23:51:34.976Z,16.43
2022-11-14T23:54:21.997Z,16.47
2022-11-14T23:57:09.365Z,16.50
2022-11-14T23:59:56.285Z,16.52
